Time;durP1;ratioP1;P1;durP2;ratioP2;P2;SDS_P1;SDS_P2;PMS_P1;PMS_P2;Temp;Humidity;BMP_temperature;BMP_pressure;BME280_temperature;BME280_humidity;BME280_pressure;Samples;Min_cycle;Max_cycle;Signal;HPM_P1;HPM_P2
2022/05/05 00:01:36;;;;;;;7.00;6.60;;;15.20;99.90;;;;;;6269833;28;20850;-54
2022/05/05 00:04:39;;;;;;;6.80;6.50;;;15.20;99.90;;;;;;6274577;28;20232;-55
2022/05/05 00:07:42;;;;;;;6.63;6.23;;;15.10;99.90;;;;;;6268182;28;20236;-54
2022/05/05 00:14:24;;;;;;;6.37;6.07;;;15.10;99.90;;;;;;6281145;28;20664;-54
2022/05/05 00:17:27;;;;;;;7.67;7.03;;;15.10;99.90;;;;;;6256010;28;20256;-55
2022/05/05 00:20:29;;;;;;;6.70;6.40;;;15.00;99.90;;;;;;6257160;28;20233;-55
2022/05/05 00:23:32;;;;;;;6.97;6.50;;;15.10;99.90;;;;;;6257002;28;20671;-56
2022/05/05 00:26:35;;;;;;;5.93;5.63;;;15.10;99.90;;;;;;6287880;28;20444;-53
2022/05/05 00:29:39;;;;;;;7.50;6.97;;;15.00;99.90;;;;;;6282060;28;20237;-53
2022/05/05 00:32:42;;;;;;;7.23;6.50;;;15.00;99.90;;;;;;6262717;28;20838;-50
2022/05/05 00:35:45;;;;;;;7.00;6.60;;;15.00;99.90;;;;;;6271937;28;20317;-51
2022/05/05 00:38:47;;;;;;;6.67;6.37;;;15.00;99.90;;;;;;6272863;28;20314;-54
2022/05/05 00:41:51;;;;;;;6.50;6.20;;;15.00;99.90;;;;;;6275378;28;20307;-54
2022/05/05 00:44:55;;;;;;;7.23;6.83;;;15.10;99.90;;;;;;6282318;28;20328;-54
2022/05/05 00:48:04;;;;;;;7.47;6.90;;;15.00;99.90;;;;;;6269931;28;20364;-54
2022/05/05 00:51:10;;;;;;;6.63;6.30;;;15.00;99.90;;;;;;6269847;28;20322;-54
2022/05/05 00:54:14;;;;;;;6.80;6.30;;;15.00;99.90;;;;;;6256803;28;20604;-55
2022/05/05 00:57:18;;;;;;;8.27;7.67;;;15.00;99.90;;;;;;6253383;28;20415;-55
2022/05/05 01:00:24;;;;;;;7.03;6.73;;;15.00;99.90;;;;;;6256437;28;20434;-54
2022/05/05 01:03:27;;;;;;;8.70;8.10;;;14.90;99.90;;;;;;6274910;28;20630;-54
2022/05/05 01:06:30;;;;;;;8.10;7.50;;;14.90;99.90;;;;;;6270338;28;20252;-53
2022/05/05 01:09:40;;;;;;;7.57;7.17;;;14.90;99.90;;;;;;6276762;28;20222;-52
2022/05/05 01:12:43;;;;;;;8.53;7.97;;;14.90;99.90;;;;;;6279718;28;20237;-54
2022/05/05 01:15:49;;;;;;;9.30;8.60;;;14.90;99.90;;;;;;6275103;28;20247;-53
2022/05/05 01:18:55;;;;;;;11.20;10.10;;;15.00;99.90;;;;;;6281679;28;20684;-54
2022/05/05 01:21:59;;;;;;;10.43;9.47;;;15.00;99.90;;;;;;6280865;28;20241;-54
2022/05/05 01:28:22;;;;;;;12.00;11.00;;;14.90;99.90;;;;;;6259132;28;20616;-55
2022/05/05 01:31:25;;;;;;;10.60;9.90;;;14.80;99.90;;;;;;6256590;28;20303;-54
2022/05/05 01:34:29;;;;;;;11.10;9.97;;;14.60;99.90;;;;;;6271036;28;20718;-53
2022/05/05 01:37:33;;;;;;;10.10;9.10;;;14.50;99.90;;;;;;6301992;27;20236;-54
2022/05/05 01:40:39;;;;;;;9.73;8.77;;;14.40;99.90;;;;;;6286145;28;20729;-55
2022/05/05 01:43:44;;;;;;;9.27;8.47;;;14.30;99.90;;;;;;6284114;28;20233;-55
2022/05/05 01:46:46;;;;;;;7.87;7.37;;;14.30;99.90;;;;;;6309913;28;20228;-55
2022/05/05 01:49:49;;;;;;;8.33;7.40;;;14.40;99.90;;;;;;6297643;28;20261;-55
2022/05/05 01:53:02;;;;;;;8.13;7.53;;;14.30;99.90;;;;;;6262082;28;20804;-54
2022/05/05 01:56:08;;;;;;;7.97;7.47;;;14.20;99.90;;;;;;6258889;28;20266;-54
2022/05/05 01:59:10;;;;;;;8.23;7.10;;;14.20;99.90;;;;;;6259706;28;20435;-54
2022/05/05 02:02:13;;;;;;;8.07;7.13;;;14.20;99.90;;;;;;6261393;28;20312;-55
2022/05/05 02:05:17;;;;;;;8.63;8.00;;;14.10;99.90;;;;;;6275836;28;20719;-53
2022/05/05 02:08:21;;;;;;;8.30;7.53;;;13.90;99.90;;;;;;6260862;28;20237;-54
2022/05/05 02:11:24;;;;;;;7.50;7.00;;;13.90;99.90;;;;;;6277961;28;20236;-55
2022/05/05 02:14:27;;;;;;;11.23;7.93;;;13.90;99.90;;;;;;6263061;28;20769;-55
2022/05/05 02:17:30;;;;;;;9.37;7.17;;;13.80;99.90;;;;;;6259692;28;20317;-53
2022/05/05 02:20:34;;;;;;;8.30;7.20;;;13.80;99.90;;;;;;6259544;28;20245;-55
2022/05/05 02:23:38;;;;;;;8.40;7.53;;;13.80;99.90;;;;;;6279734;28;20283;-55
2022/05/05 02:26:41;;;;;;;8.27;7.63;;;13.60;99.90;;;;;;6281622;28;20267;-55
2022/05/05 02:29:43;;;;;;;8.80;7.93;;;13.70;99.90;;;;;;6284382;28;20237;-53
2022/05/05 02:32:47;;;;;;;8.90;7.60;;;13.60;99.90;;;;;;6261010;28;20507;-53
2022/05/05 02:38:42;;;;;;;8.77;8.07;;;13.50;99.90;;;;;;6272534;28;20876;-55
2022/05/05 02:39:12;;;;;;;15.47;7.90;;;13.50;99.90;;;;;;6282992;28;20743;-55
2022/05/05 02:42:16;;;;;;;10.23;7.97;;;13.50;99.90;;;;;;6279928;28;20814;-53
2022/05/05 02:45:21;;;;;;;8.50;7.87;;;13.50;99.90;;;;;;6284178;28;20450;-54
2022/05/05 02:48:23;;;;;;;8.53;7.73;;;13.50;99.90;;;;;;6282488;28;20299;-55
2022/05/05 02:51:26;;;;;;;8.90;8.00;;;13.40;99.90;;;;;;6282516;28;20653;-55
2022/05/05 02:54:51;;;;;;;9.00;8.23;;;13.40;99.90;;;;;;6282206;28;20276;-56
2022/05/05 02:57:54;;;;;;;9.27;8.47;;;13.40;99.90;;;;;;6281278;28;20237;-54
2022/05/05 03:00:57;;;;;;;8.73;8.03;;;13.30;99.90;;;;;;6283283;28;20312;-53
2022/05/05 03:03:59;;;;;;;8.87;8.03;;;13.30;99.90;;;;;;6282206;28;20233;-54
2022/05/05 03:07:03;;;;;;;9.47;8.57;;;13.20;99.90;;;;;;6283649;28;20385;-55
2022/05/05 03:10:08;;;;;;;11.97;8.27;;;13.30;99.90;;;;;;6286376;28;20487;-53
2022/05/05 03:13:11;;;;;;;11.33;9.10;;;13.30;99.90;;;;;;6276122;28;20230;-55
2022/05/05 03:16:14;;;;;;;9.50;8.50;;;13.30;99.90;;;;;;6283165;28;20322;-55
2022/05/05 03:19:18;;;;;;;9.20;8.30;;;13.20;99.90;;;;;;6282333;28;20772;-53
2022/05/05 03:22:21;;;;;;;8.70;8.10;;;13.20;99.90;;;;;;6277650;28;20234;-56
2022/05/05 03:25:25;;;;;;;9.80;8.80;;;13.20;99.90;;;;;;6277673;28;20386;-55
2022/05/05 03:28:28;;;;;;;9.53;8.80;;;13.20;99.90;;;;;;6281658;28;20320;-53
2022/05/05 03:31:31;;;;;;;9.30;8.50;;;13.10;99.90;;;;;;6274359;28;20265;-54
2022/05/05 03:34:34;;;;;;;10.37;9.37;;;13.20;99.90;;;;;;6301238;28;20313;-55
2022/05/05 03:37:36;;;;;;;9.93;9.13;;;13.10;99.90;;;;;;6305513;28;20432;-54
2022/05/05 03:40:41;;;;;;;11.70;8.87;;;13.00;1.00;;;;;;6298344;28;20577;-53
2022/05/05 03:43:44;;;;;;;10.17;9.13;;;13.00;1.00;;;;;;6307397;28;20224;-55
2022/05/05 03:46:46;;;;;;;10.50;9.40;;;13.00;1.00;;;;;;6307102;28;20514;-53
2022/05/05 03:49:49;;;;;;;9.70;8.90;;;13.00;1.00;;;;;;6297913;28;20243;-55
2022/05/05 03:52:52;;;;;;;11.00;9.53;;;12.90;1.00;;;;;;6305102;28;20822;-55
2022/05/05 03:55:56;;;;;;;10.93;9.97;;;12.90;1.00;;;;;;6305738;28;20736;-53
2022/05/05 03:58:59;;;;;;;12.03;9.90;;;12.90;1.00;;;;;;6306901;28;20724;-55
2022/05/05 04:02:02;;;;;;;11.57;10.37;;;12.80;1.00;;;;;;6310306;28;20302;-56
2022/05/05 04:05:05;;;;;;;10.50;9.50;;;12.80;1.00;;;;;;6307973;28;20633;-54
2022/05/05 04:08:08;;;;;;;10.57;9.80;;;12.80;1.00;;;;;;6303079;28;20702;-53
2022/05/05 04:11:12;;;;;;;10.60;9.70;;;12.80;1.00;;;;;;6301752;28;20645;-54
2022/05/05 04:14:15;;;;;;;10.50;9.53;;;12.80;1.00;;;;;;6309493;28;20236;-53
2022/05/05 04:17:18;;;;;;;10.73;9.47;;;12.70;1.00;;;;;;6306923;28;20335;-57
2022/05/05 04:20:21;;;;;;;11.63;10.57;;;12.80;1.00;;;;;;6297041;28;20243;-55
2022/05/05 04:23:23;;;;;;;10.87;9.87;;;12.80;1.00;;;;;;6278029;28;20225;-54
2022/05/05 04:26:46;;;;;;;11.00;10.03;;;12.80;1.00;;;;;;6302727;28;20239;-55
2022/05/05 04:29:49;;;;;;;13.40;10.73;;;12.80;1.00;;;;;;6290379;28;20436;-56
2022/05/05 04:32:52;;;;;;;13.13;10.43;;;12.70;1.00;;;;;;6298920;28;20300;-56
2022/05/05 04:35:55;;;;;;;11.50;10.43;;;12.70;1.00;;;;;;6306146;28;20363;-54
2022/05/05 04:38:58;;;;;;;11.53;10.27;;;12.60;1.00;;;;;;6302919;28;20304;-54
2022/05/05 04:42:02;;;;;;;12.13;10.83;;;12.60;1.00;;;;;;6304621;28;20796;-56
2022/05/05 04:45:05;;;;;;;12.10;10.97;;;12.60;1.00;;;;;;6304077;28;20595;-54
2022/05/05 04:48:09;;;;;;;12.10;11.03;;;12.60;1.00;;;;;;6308410;28;20254;-55
2022/05/05 04:51:12;;;;;;;12.87;10.63;;;12.60;1.00;;;;;;6299645;28;20247;-54
2022/05/05 04:54:14;;;;;;;13.23;10.67;;;12.50;1.00;;;;;;6313400;28;20373;-54
2022/05/05 04:57:18;;;;;;;10.67;9.97;;;12.60;1.00;;;;;;6305886;28;20236;-55
2022/05/05 05:00:22;;;;;;;11.57;10.30;;;12.60;1.00;;;;;;6283327;28;20753;-54
2022/05/05 05:03:40;;;;;;;11.57;10.43;;;12.60;1.00;;;;;;6301647;28;20236;-53
2022/05/05 05:06:42;;;;;;;14.93;10.50;;;12.60;1.00;;;;;;6302326;28;20232;-55
2022/05/05 05:09:45;;;;;;;11.33;10.17;;;12.80;1.00;;;;;;6306205;28;20293;-55
2022/05/05 05:12:50;;;;;;;13.23;10.67;;;12.90;1.00;;;;;;6308164;28;20315;-55
2022/05/05 05:15:53;;;;;;;11.27;10.20;;;13.00;1.00;;;;;;6321470;27;20240;-54
2022/05/05 05:18:56;;;;;;;12.33;10.90;;;13.00;1.00;;;;;;6306620;28;20232;-53
2022/05/05 05:21:58;;;;;;;12.70;11.20;;;13.00;1.00;;;;;;6297479;28;20267;-53
2022/05/05 05:25:01;;;;;;;12.17;10.97;;;13.20;1.00;;;;;;6315167;27;20233;-55
2022/05/05 05:28:05;;;;;;;12.70;11.40;;;13.20;1.00;;;;;;6319373;28;20308;-53
2022/05/05 05:31:16;;;;;;;11.77;10.50;;;13.20;1.00;;;;;;6318256;27;20370;-54
2022/05/05 05:34:19;;;;;;;16.90;12.60;;;13.20;1.00;;;;;;6312218;28;20478;-54
2022/05/05 05:37:21;;;;;;;12.73;11.63;;;13.20;1.00;;;;;;6311218;28;20256;-53
2022/05/05 05:40:24;;;;;;;12.10;10.90;;;13.30;1.00;;;;;;6307870;28;20464;-54
2022/05/05 05:43:28;;;;;;;12.30;11.17;;;13.30;1.00;;;;;;6303267;28;20513;-56
2022/05/05 05:46:31;;;;;;;11.87;10.70;;;13.30;1.00;;;;;;6315285;28;20316;-54
2022/05/05 05:49:34;;;;;;;12.30;10.63;;;13.40;1.00;;;;;;6313735;28;20224;-54
2022/05/05 05:52:36;;;;;;;12.20;11.00;;;13.40;1.00;;;;;;6307059;28;20224;-54
2022/05/05 05:55:39;;;;;;;11.57;10.67;;;13.40;1.00;;;;;;6303728;28;20606;-53
2022/05/05 05:58:45;;;;;;;12.00;10.90;;;13.50;1.00;;;;;;6312296;27;20315;-55
2022/05/05 06:05:09;;;;;;;11.37;10.17;;;13.70;1.00;;;;;;6289723;28;20307;-54
2022/05/05 06:08:12;;;;;;;12.00;10.57;;;13.80;1.00;;;;;;6304974;27;20326;-53
2022/05/05 06:11:16;;;;;;;11.27;10.27;;;13.90;1.00;;;;;;6285758;28;20286;-54
2022/05/05 06:14:30;;;;;;;11.97;10.43;;;13.90;1.00;;;;;;6286883;28;20606;-55
2022/05/05 06:17:34;;;;;;;10.17;9.17;;;13.80;1.00;;;;;;6308514;28;20261;-54
2022/05/05 06:20:37;;;;;;;13.00;9.90;;;13.80;1.00;;;;;;6313465;27;20289;-53
2022/05/05 06:23:41;;;;;;;13.93;10.97;;;13.90;1.00;;;;;;6318299;28;20281;-55
2022/05/05 06:26:43;;;;;;;15.00;10.63;;;13.90;1.00;;;;;;6312185;28;20688;-55
2022/05/05 06:29:47;;;;;;;10.70;9.70;;;14.00;1.00;;;;;;6308857;28;20717;-55
2022/05/05 06:32:50;;;;;;;14.37;10.40;;;14.20;1.00;;;;;;6311235;28;20762;-54
2022/05/05 06:35:53;;;;;;;14.57;10.63;;;14.40;1.00;;;;;;6306693;28;20236;-55
2022/05/05 06:38:56;;;;;;;11.30;10.07;;;14.60;1.00;;;;;;6307152;28;20305;-55
2022/05/05 06:41:58;;;;;;;10.03;9.10;;;15.00;1.00;;;;;;6307205;28;20271;-54
2022/05/05 06:45:06;;;;;;;16.10;10.07;;;15.40;1.00;;;;;;6311539;28;20494;-54
2022/05/05 06:48:09;;;;;;;11.37;9.87;;;15.60;1.00;;;;;;6310600;28;20709;-54
2022/05/05 06:51:13;;;;;;;9.83;8.87;;;15.70;1.00;;;;;;6311685;28;20322;-53
2022/05/05 06:54:16;;;;;;;11.30;9.63;;;15.70;1.00;;;;;;6301824;28;20232;-54
2022/05/05 06:57:19;;;;;;;10.57;9.50;;;15.60;1.00;;;;;;6308894;28;20293;-55
2022/05/05 07:05:23;;;;;;;11.07;9.63;;;15.60;1.00;;;;;;6309184;28;20278;-54
2022/05/05 07:07:15;;;;;;;10.57;9.50;;;15.60;1.00;;;;;;6308475;28;20240;-54
2022/05/05 07:13:39;;;;;;;12.50;9.63;;;15.70;1.00;;;;;;6282492;28;20754;-53
2022/05/05 07:16:43;;;;;;;10.93;9.97;;;15.60;1.00;;;;;;6281955;28;20584;-54
2022/05/05 07:19:46;;;;;;;11.50;9.67;;;15.70;1.00;;;;;;6279038;28;20236;-55
2022/05/05 07:22:48;;;;;;;11.07;10.00;;;15.80;1.00;;;;;;6291625;28;20244;-54
2022/05/05 07:25:51;;;;;;;12.90;10.03;;;15.80;1.00;;;;;;6303346;27;20279;-53
2022/05/05 07:28:54;;;;;;;10.87;9.80;;;16.00;1.00;;;;;;6309945;28;20232;-53
2022/05/05 07:31:58;;;;;;;13.07;9.70;;;16.00;1.00;;;;;;6310888;28;20323;-54
2022/05/05 07:35:02;;;;;;;10.03;9.20;;;15.90;1.00;;;;;;6299126;28;20237;-56
2022/05/05 07:38:04;;;;;;;11.20;9.33;;;15.90;1.00;;;;;;6307330;28;20413;-54
2022/05/05 07:41:07;;;;;;;11.93;10.60;;;16.00;1.00;;;;;;6304983;28;20375;-58
2022/05/05 07:44:10;;;;;;;11.23;8.83;;;15.90;1.00;;;;;;6305244;28;20240;-55
2022/05/05 07:47:14;;;;;;;10.47;9.23;;;15.90;1.00;;;;;;6310075;28;20263;-55
2022/05/05 07:50:17;;;;;;;10.73;9.73;;;15.90;1.00;;;;;;6313960;28;20364;-54
2022/05/05 07:53:20;;;;;;;10.17;9.27;;;15.60;1.00;;;;;;6291900;28;20380;-54
2022/05/05 07:56:23;;;;;;;9.90;9.10;;;15.80;1.00;;;;;;6283600;28;20297;-47
2022/05/05 07:59:25;;;;;;;11.10;9.90;;;15.80;1.00;;;;;;6305675;28;20282;-53
2022/05/05 08:02:29;;;;;;;11.67;10.53;;;15.80;1.00;;;;;;6306522;28;20233;-54
2022/05/05 08:05:32;;;;;;;11.77;10.63;;;15.80;1.00;;;;;;6320182;28;20927;-56
2022/05/05 08:08:44;;;;;;;11.53;10.13;;;15.90;1.00;;;;;;6306731;28;20720;-54
2022/05/05 08:11:47;;;;;;;10.93;10.03;;;15.90;1.00;;;;;;6306562;28;20286;-53
2022/05/05 08:14:49;;;;;;;10.73;9.67;;;15.90;1.00;;;;;;6313813;28;20846;-54
2022/05/05 08:17:53;;;;;;;11.33;10.17;;;16.10;1.00;;;;;;6311053;28;20362;-55
2022/05/05 08:20:56;;;;;;;18.60;10.90;;;16.10;1.00;;;;;;6304471;28;20405;-55
2022/05/05 08:30:39;;;;;;;10.90;9.80;;;16.00;1.00;;;;;;6299128;28;20275;-54
2022/05/05 08:33:44;;;;;;;10.77;9.70;;;16.20;1.00;;;;;;6312880;28;20237;-55
2022/05/05 08:36:47;;;;;;;11.87;10.67;;;16.30;99.90;;;;;;6303028;28;20290;-54
2022/05/05 08:39:54;;;;;;;11.40;10.30;;;16.30;99.90;;;;;;6280174;28;20319;-54
2022/05/05 08:42:57;;;;;;;11.43;10.20;;;16.30;99.90;;;;;;6278801;28;20286;-55
2022/05/05 08:46:18;;;;;;;10.97;9.17;;;16.50;99.90;;;;;;6282180;28;20245;-54
2022/05/05 08:49:24;;;;;;;10.47;9.57;;;16.70;99.90;;;;;;6278171;28;20233;-55
2022/05/05 08:52:34;;;;;;;9.93;9.10;;;16.80;99.90;;;;;;6302257;28;20281;-54
2022/05/05 08:55:37;;;;;;;9.93;9.03;;;17.00;99.90;;;;;;6282178;28;20234;-53
2022/05/05 08:58:44;;;;;;;12.07;7.93;;;17.10;99.90;;;;;;6292910;28;20235;-54
2022/05/05 09:01:46;;;;;;;11.50;8.90;;;17.20;99.90;;;;;;6316285;28;20240;-54
2022/05/05 09:04:50;;;;;;;7.97;7.33;;;17.20;99.90;;;;;;6287800;28;20596;-53
2022/05/05 09:07:54;;;;;;;9.27;8.40;;;17.20;99.90;;;;;;6289526;28;20808;-55
2022/05/05 09:10:58;;;;;;;8.27;7.67;;;17.20;99.90;;;;;;6287100;28;20726;-54
2022/05/05 09:14:07;;;;;;;9.43;7.17;;;17.20;99.90;;;;;;6281604;28;20591;-55
2022/05/05 09:17:12;;;;;;;7.77;7.13;;;17.30;99.90;;;;;;6288029;28;20249;-55
2022/05/05 09:20:17;;;;;;;8.70;7.93;;;17.40;99.90;;;;;;6284721;28;20327;-56
2022/05/05 09:23:29;;;;;;;8.83;7.87;;;17.60;99.90;;;;;;6286888;28;20418;-55
2022/05/05 09:26:32;;;;;;;9.13;7.43;;;17.70;99.90;;;;;;6281831;28;20315;-54
2022/05/05 09:29:35;;;;;;;7.80;6.93;;;17.80;99.90;;;;;;6298174;28;20371;-54
2022/05/05 09:32:45;;;;;;;8.07;7.27;;;17.90;99.90;;;;;;6283811;28;20229;-55
2022/05/05 09:35:56;;;;;;;8.73;7.33;;;17.90;99.90;;;;;;6278421;28;20769;-55
2022/05/05 09:39:02;;;;;;;9.07;7.40;;;17.90;99.90;;;;;;6298490;28;20439;-54
2022/05/05 09:42:05;;;;;;;11.37;6.97;;;17.90;99.90;;;;;;6291456;28;20248;-57
2022/05/05 09:45:18;;;;;;;7.70;7.10;;;18.00;99.90;;;;;;6288309;28;20252;-56
2022/05/05 09:48:22;;;;;;;7.93;7.17;;;17.80;99.90;;;;;;6288593;28;20240;-56
2022/05/05 09:51:26;;;;;;;8.30;7.20;;;17.70;99.90;;;;;;6282163;28;20312;-54
2022/05/05 09:58:02;;;;;;;10.33;6.80;;;18.10;99.90;;;;;;6284509;28;20237;-56
2022/05/05 10:01:08;;;;;;;7.73;7.13;;;18.20;99.90;;;;;;6297141;28;20233;-54
2022/05/05 10:04:14;;;;;;;7.27;6.67;;;18.20;99.90;;;;;;6292127;28;20245;-54
2022/05/05 10:07:21;;;;;;;7.47;6.87;;;18.40;99.90;;;;;;6286583;28;20251;-56
2022/05/05 10:10:26;;;;;;;8.37;6.90;;;18.50;99.90;;;;;;6288213;28;20416;-54
2022/05/05 10:13:30;;;;;;;7.07;6.43;;;18.60;99.90;;;;;;6285124;28;20229;-54
2022/05/05 10:16:33;;;;;;;7.13;6.57;;;18.70;99.90;;;;;;6281840;28;20491;-56
2022/05/05 10:19:38;;;;;;;7.73;6.57;;;18.80;99.90;;;;;;6285226;28;20306;-56
2022/05/05 10:22:55;;;;;;;7.93;6.53;;;19.00;99.90;;;;;;6313699;28;20493;-55
2022/05/05 10:25:59;;;;;;;8.07;6.83;;;19.20;99.90;;;;;;6289338;28;20291;-54
2022/05/05 10:29:02;;;;;;;10.53;6.93;;;19.30;99.90;;;;;;6309831;27;20321;-56
2022/05/05 10:32:11;;;;;;;7.47;6.43;;;19.20;99.90;;;;;;6286156;28;20233;-54
2022/05/05 10:35:38;;;;;;;7.90;6.43;;;19.40;99.90;;;;;;6294683;28;20290;-55
2022/05/05 10:38:43;;;;;;;7.50;6.80;;;19.60;99.90;;;;;;6304185;28;20302;-54
2022/05/05 10:41:46;;;;;;;10.17;6.80;;;19.80;99.90;;;;;;6300662;28;20252;-55
2022/05/05 10:45:16;;;;;;;7.63;6.83;;;19.70;99.90;;;;;;6308893;28;20224;-50
2022/05/05 10:48:34;;;;;;;6.63;6.03;;;19.30;99.90;;;;;;6308125;28;20232;-55
2022/05/05 10:52:13;;;;;;;7.50;6.80;;;19.20;99.90;;;;;;6307716;28;20239;-55
2022/05/05 10:55:32;;;;;;;7.53;6.83;;;19.10;99.90;;;;;;6310704;28;20243;-54
2022/05/05 10:59:06;;;;;;;7.43;6.83;;;19.10;99.90;;;;;;6304484;28;20233;-54
2022/05/05 11:02:18;;;;;;;9.17;6.87;;;19.10;99.90;;;;;;6298316;28;20267;-55
2022/05/05 11:05:44;;;;;;;8.33;6.67;;;19.20;99.90;;;;;;6301407;28;20228;-56
2022/05/05 11:09:03;;;;;;;7.27;6.57;;;19.30;99.90;;;;;;6308344;28;20229;-55
2022/05/05 11:12:18;;;;;;;7.03;6.63;;;19.50;99.90;;;;;;6284240;28;20743;-54
2022/05/05 11:22:15;;;;;;;12.33;7.20;;;19.80;99.90;;;;;;6289261;28;20748;-55
2022/05/05 11:25:19;;;;;;;11.27;7.47;;;19.40;99.90;;;;;;6284666;28;20335;-55
2022/05/05 11:28:23;;;;;;;9.73;7.83;;;19.30;99.90;;;;;;6279964;28;20810;-54
2022/05/05 11:31:30;;;;;;;9.83;6.80;;;19.00;99.90;;;;;;6282388;28;20245;-54
2022/05/05 11:34:34;;;;;;;8.23;7.40;;;19.00;99.90;;;;;;6279944;28;20243;-54
2022/05/05 11:37:42;;;;;;;10.03;7.37;;;19.10;99.90;;;;;;6285922;28;20697;-55
2022/05/05 11:40:45;;;;;;;9.97;7.17;;;19.10;99.90;;;;;;6278670;28;20321;-54
2022/05/05 11:47:18;;;;;;;6.43;6.10;;;19.60;99.90;;;;;;6279055;28;20399;-56
2022/05/05 11:50:21;;;;;;;8.90;6.57;;;19.70;99.90;;;;;;6285122;28;20859;-55
2022/05/05 11:53:24;;;;;;;7.40;6.50;;;19.90;99.90;;;;;;6303269;28;20236;-55
2022/05/05 11:56:29;;;;;;;9.40;7.30;;;20.10;99.90;;;;;;6313372;28;20509;-57
2022/05/05 12:02:58;;;;;;;10.67;6.70;;;19.90;99.90;;;;;;6290193;28;20229;-55
2022/05/05 12:06:01;;;;;;;9.77;6.93;;;19.70;99.90;;;;;;6279776;28;20237;-55
2022/05/05 12:09:07;;;;;;;7.43;6.60;;;19.50;99.90;;;;;;6287753;28;20284;-55
2022/05/05 12:12:12;;;;;;;9.07;6.17;;;19.50;99.90;;;;;;6290155;28;20248;-54
2022/05/05 12:15:21;;;;;;;7.23;6.53;;;19.40;99.90;;;;;;6301789;28;20228;-55
2022/05/05 12:18:25;;;;;;;7.50;6.40;;;19.50;99.90;;;;;;6303460;28;20233;-55
2022/05/05 12:21:28;;;;;;;8.00;6.60;;;19.50;99.90;;;;;;6301203;28;20224;-55
2022/05/05 12:24:32;;;;;;;7.97;7.10;;;19.50;99.90;;;;;;6316129;28;20331;-55
2022/05/05 12:27:35;;;;;;;6.67;6.00;;;19.50;99.90;;;;;;6306009;28;20373;-55
2022/05/05 12:30:42;;;;;;;6.37;5.83;;;19.70;99.90;;;;;;6307760;28;20901;-55
2022/05/05 12:33:45;;;;;;;10.37;6.43;;;19.80;99.90;;;;;;6303979;28;20228;-55
2022/05/05 12:36:48;;;;;;;7.03;6.43;;;20.00;99.90;;;;;;6304424;28;20274;-55
2022/05/05 12:39:55;;;;;;;15.13;7.23;;;20.00;99.90;;;;;;6307007;28;20365;-56
2022/05/05 12:43:03;;;;;;;7.80;7.10;;;19.80;99.90;;;;;;6305887;28;20508;-56
2022/05/05 12:46:07;;;;;;;10.20;6.30;;;19.70;99.90;;;;;;6279726;28;20241;-57
2022/05/05 12:49:10;;;;;;;7.17;6.30;;;19.80;99.90;;;;;;6279986;28;20614;-55
2022/05/05 13:02:12;;;;;;;6.50;5.77;;;19.90;99.90;;;;;;6298085;28;20254;-54
2022/05/05 13:05:18;;;;;;;6.70;5.60;;;20.00;99.90;;;;;;6308005;28;20624;-55
2022/05/05 13:08:21;;;;;;;6.33;5.73;;;20.40;99.90;;;;;;6309716;28;20232;-54
2022/05/05 13:11:24;;;;;;;7.53;5.63;;;20.50;99.90;;;;;;6305128;28;20240;-56
2022/05/05 13:14:27;;;;;;;10.47;6.50;;;20.50;99.90;;;;;;6301991;28;20379;-55
2022/05/05 13:17:34;;;;;;;6.53;5.87;;;20.20;99.90;;;;;;6305103;28;20547;-55
2022/05/05 13:20:37;;;;;;;7.20;6.50;;;19.80;99.90;;;;;;6293752;28;20294;-56
2022/05/05 13:23:40;;;;;;;10.70;6.43;;;19.60;99.90;;;;;;6309766;28;20543;-54
2022/05/05 13:26:46;;;;;;;8.17;5.87;;;19.50;99.90;;;;;;6302873;28;20325;-57
2022/05/05 13:29:53;;;;;;;9.73;6.50;;;19.50;99.90;;;;;;6308703;28;20704;-53
2022/05/05 13:32:58;;;;;;;8.03;5.97;;;19.50;99.90;;;;;;6313883;28;20322;-53
2022/05/05 13:36:01;;;;;;;7.63;6.23;;;19.50;99.90;;;;;;6310770;28;20232;-54
2022/05/05 13:39:04;;;;;;;7.80;6.67;;;19.50;99.90;;;;;;6308781;28;20242;-56
2022/05/05 13:42:09;;;;;;;7.17;5.97;;;19.60;99.90;;;;;;6311902;28;20269;-55
2022/05/05 13:45:18;;;;;;;6.53;6.00;;;19.50;99.90;;;;;;6309320;28;20251;-55
2022/05/05 13:48:23;;;;;;;9.00;6.23;;;19.50;99.90;;;;;;6315434;27;20327;-56
2022/05/05 13:51:25;;;;;;;6.37;5.77;;;19.50;99.90;;;;;;6314493;28;20248;-56
2022/05/05 13:54:29;;;;;;;6.60;6.00;;;19.50;99.90;;;;;;6310665;28;20245;-55
2022/05/05 13:57:32;;;;;;;10.63;6.47;;;19.60;99.90;;;;;;6302320;28;20798;-57
2022/05/05 14:00:35;;;;;;;7.93;5.50;;;19.60;99.90;;;;;;6310708;28;20246;-51
2022/05/05 14:03:39;;;;;;;10.73;5.80;;;19.90;99.90;;;;;;6282996;28;20685;-55
2022/05/05 14:06:42;;;;;;;7.07;5.37;;;20.00;99.90;;;;;;6281873;28;20324;-55
2022/05/05 14:13:06;;;;;;;6.70;5.47;;;20.50;99.90;;;;;;6306446;28;20614;-55
2022/05/05 14:16:10;;;;;;;9.17;5.60;;;20.60;99.90;;;;;;6312888;28;20573;-54
2022/05/05 14:19:14;;;;;;;6.10;5.40;;;20.50;99.90;;;;;;6317546;28;20240;-54
2022/05/05 14:22:17;;;;;;;5.37;4.93;;;20.50;99.90;;;;;;6319821;28;20238;-54
2022/05/05 14:25:20;;;;;;;5.43;4.97;;;20.40;99.90;;;;;;6308801;28;20289;-55
2022/05/05 14:28:23;;;;;;;5.60;5.03;;;20.20;99.90;;;;;;6276459;28;20274;-54
2022/05/05 14:31:26;;;;;;;6.73;5.20;;;20.10;99.90;;;;;;6307523;28;20323;-52
2022/05/05 14:34:30;;;;;;;5.40;4.90;;;19.90;99.90;;;;;;6290630;28;20248;-56
2022/05/05 14:37:34;;;;;;;5.03;4.60;;;20.00;99.90;;;;;;6283687;28;20622;-55
2022/05/05 14:40:44;;;;;;;8.83;4.80;;;20.00;99.90;;;;;;6285739;28;20233;-54
2022/05/05 14:43:47;;;;;;;5.83;4.50;;;20.00;99.90;;;;;;6313393;28;20315;-54
2022/05/05 14:46:50;;;;;;;6.47;4.40;;;20.30;99.90;;;;;;6304931;28;20244;-54
2022/05/05 14:49:55;;;;;;;5.63;4.60;;;20.60;99.90;;;;;;6310238;28;21237;-55
2022/05/05 14:53:00;;;;;;;5.20;4.67;;;20.90;99.90;;;;;;6305247;28;20225;-55
2022/05/05 14:56:02;;;;;;;5.70;5.20;;;20.80;99.90;;;;;;6299396;28;20224;-56
2022/05/05 14:59:06;;;;;;;5.13;4.67;;;20.40;99.90;;;;;;6307847;28;20896;-55
2022/05/05 15:02:09;;;;;;;5.13;4.67;;;20.10;99.90;;;;;;6303422;28;20247;-53
2022/05/05 15:05:16;;;;;;;4.80;4.40;;;19.80;99.90;;;;;;6304673;28;20241;-56
2022/05/05 15:08:22;;;;;;;6.73;4.90;;;19.80;99.90;;;;;;6307541;28;20296;-53
2022/05/05 15:11:24;;;;;;;3.63;3.43;;;19.80;99.90;;;;;;6300214;28;20603;-54
2022/05/05 15:14:28;;;;;;;6.63;3.97;;;19.90;99.90;;;;;;6313940;28;20240;-53
2022/05/05 15:17:30;;;;;;;4.53;3.83;;;20.00;99.90;;;;;;6306958;28;20704;-53
2022/05/05 15:20:36;;;;;;;3.87;3.57;;;20.00;99.90;;;;;;6305047;28;20244;-54
2022/05/05 15:23:39;;;;;;;6.43;3.33;;;20.00;99.90;;;;;;6303958;28;20228;-54
2022/05/05 15:26:45;;;;;;;5.03;3.53;;;20.00;99.90;;;;;;6306503;28;20734;-56
2022/05/05 15:29:48;;;;;;;6.27;3.83;;;19.70;99.90;;;;;;6309400;28;20238;-54
2022/05/05 15:32:51;;;;;;;4.07;3.67;;;19.50;99.90;;;;;;6305349;28;20233;-54
2022/05/05 15:35:55;;;;;;;4.97;3.73;;;19.40;99.90;;;;;;6300640;28;20718;-54
2022/05/05 15:38:59;;;;;;;5.67;3.90;;;19.30;99.90;;;;;;6307619;28;20232;-53
2022/05/05 15:42:02;;;;;;;5.97;3.60;;;19.20;99.90;;;;;;6300109;28;20326;-55
2022/05/05 15:45:08;;;;;;;3.60;3.40;;;19.30;99.90;;;;;;6320442;28;20318;-54
2022/05/05 15:48:11;;;;;;;4.37;3.77;;;19.60;99.90;;;;;;6307253;28;20400;-54
2022/05/05 15:51:15;;;;;;;5.83;3.83;;;19.80;99.90;;;;;;6304650;28;20232;-53
2022/05/05 15:54:18;;;;;;;4.23;3.83;;;19.90;99.90;;;;;;6300242;28;20252;-53
2022/05/05 15:57:21;;;;;;;6.53;3.53;;;20.10;99.90;;;;;;6303983;28;20237;-56
2022/05/05 16:00:26;;;;;;;7.63;4.20;;;20.20;99.90;;;;;;6305403;28;20751;-56
2022/05/05 16:03:28;;;;;;;4.07;3.77;;;20.20;99.90;;;;;;6314031;28;20661;-53
2022/05/05 16:06:32;;;;;;;3.70;3.40;;;19.90;99.90;;;;;;6306727;28;20523;-53
2022/05/05 16:09:36;;;;;;;4.47;3.67;;;19.70;99.90;;;;;;6306066;28;20283;-54
2022/05/05 16:12:39;;;;;;;4.87;4.30;;;19.50;99.90;;;;;;6309002;28;20221;-52
2022/05/05 16:15:42;;;;;;;4.50;4.10;;;19.50;99.90;;;;;;6304697;28;20514;-55
2022/05/05 16:18:45;;;;;;;9.13;3.50;;;19.50;99.90;;;;;;6305594;28;20233;-55
2022/05/05 16:21:50;;;;;;;4.50;4.20;;;19.40;99.90;;;;;;6307998;28;20738;-54
2022/05/05 16:31:39;;;;;;;5.90;4.30;;;19.20;99.90;;;;;;6304221;28;20225;-54
2022/05/05 16:34:42;;;;;;;4.23;3.80;;;19.00;99.90;;;;;;6314749;28;20320;-54
2022/05/05 16:37:54;;;;;;;4.17;3.57;;;19.00;99.90;;;;;;6300899;28;20425;-55
2022/05/05 16:40:57;;;;;;;5.07;4.40;;;18.80;99.90;;;;;;6280865;28;20683;-54
2022/05/05 16:43:59;;;;;;;5.10;4.67;;;18.70;99.90;;;;;;6268023;28;20264;-51
2022/05/05 16:47:02;;;;;;;4.93;3.77;;;18.60;99.90;;;;;;6278236;28;20341;-57
2022/05/05 16:50:06;;;;;;;5.40;3.80;;;18.50;99.90;;;;;;6288712;28;20242;-54
2022/05/05 16:53:10;;;;;;;5.63;4.13;;;18.50;99.90;;;;;;6276048;28;20569;-55
2022/05/05 16:56:16;;;;;;;4.13;3.87;;;18.40;99.90;;;;;;6279202;28;20310;-54
2022/05/05 16:59:20;;;;;;;6.57;4.20;;;18.30;99.90;;;;;;6271966;28;20325;-61